sensor_id;sensor_type;location;lat;lon;timestamp;P1;durP1;ratioP1;P2;durP2;ratioP2
68523;SDS011;55524;51.380;13.372;2023-04-01T00:01:09;2.03;;;1.00;;
68523;SDS011;55524;51.380;13.372;2023-04-01T00:03:39;2.67;;;0.80;;
68523;SDS011;55524;51.380;13.372;2023-04-01T00:06:05;3.67;;;0.73;;
68523;SDS011;55524;51.380;13.372;2023-04-01T00:08:32;2.90;;;0.68;;
68523;SDS011;55524;51.380;13.372;2023-04-01T00:10:58;4.93;;;0.77;;
68523;SDS011;55524;51.380;13.372;2023-04-01T00:13:25;1.05;;;0.70;;
68523;SDS011;55524;51.380;13.372;2023-04-01T00:15:52;0.90;;;0.75;;
68523;SDS011;55524;51.380;13.372;2023-04-01T00:18:20;0.80;;;0.80;;
68523;SDS011;55524;51.380;13.372;2023-04-01T00:20:47;1.50;;;0.88;;
68523;SDS011;55524;51.380;13.372;2023-04-01T00:23:15;1.65;;;0.90;;
68523;SDS011;55524;51.380;13.372;2023-04-01T00:25:41;1.88;;;0.88;;
68523;SDS011;55524;51.380;13.372;2023-04-01T00:28:09;3.13;;;0.80;;
68523;SDS011;55524;51.380;13.372;2023-04-01T00:30:35;1.27;;;0.80;;
68523;SDS011;55524;51.380;13.372;2023-04-01T00:33:02;1.90;;;0.70;;
68523;SDS011;55524;51.380;13.372;2023-04-01T00:35:29;1.05;;;0.80;;
68523;SDS011;55524;51.380;13.372;2023-04-01T00:37:55;2.53;;;0.90;;
68523;SDS011;55524;51.380;13.372;2023-04-01T00:40:30;1.13;;;0.70;;
68523;SDS011;55524;51.380;13.372;2023-04-01T00:43:01;1.45;;;0.80;;
68523;SDS011;55524;51.380;13.372;2023-04-01T00:45:30;2.58;;;0.88;;
68523;SDS011;55524;51.380;13.372;2023-04-01T00:47:57;1.20;;;0.88;;
68523;SDS011;55524;51.380;13.372;2023-04-01T00:50:31;2.53;;;0.90;;
68523;SDS011;55524;51.380;13.372;2023-04-01T00:52:59;4.75;;;0.90;;
68523;SDS011;55524;51.380;13.372;2023-04-01T00:55:27;2.90;;;0.80;;
68523;SDS011;55524;51.380;13.372;2023-04-01T00:57:56;1.90;;;0.65;;
68523;SDS011;55524;51.380;13.372;2023-04-01T01:00:25;3.95;;;0.90;;
68523;SDS011;55524;51.380;13.372;2023-04-01T01:02:51;1.67;;;0.68;;
68523;SDS011;55524;51.380;13.372;2023-04-01T01:05:18;0.80;;;0.70;;
68523;SDS011;55524;51.380;13.372;2023-04-01T01:11:03;0.88;;;0.73;;
68523;SDS011;55524;51.380;13.372;2023-04-01T01:13:39;2.55;;;0.80;;
68523;SDS011;55524;51.380;13.372;2023-04-01T01:16:13;1.52;;;0.70;;
68523;SDS011;55524;51.380;13.372;2023-04-01T01:18:50;2.63;;;0.80;;
68523;SDS011;55524;51.380;13.372;2023-04-01T01:24:26;1.65;;;0.70;;
68523;SDS011;55524;51.380;13.372;2023-04-01T01:27:08;1.95;;;0.70;;
68523;SDS011;55524;51.380;13.372;2023-04-01T01:37:43;2.40;;;0.90;;
68523;SDS011;55524;51.380;13.372;2023-04-01T01:40:11;0.60;;;0.60;;
68523;SDS011;55524;51.380;13.372;2023-04-01T01:42:40;0.90;;;0.60;;
68523;SDS011;55524;51.380;13.372;2023-04-01T01:45:16;2.65;;;0.90;;
68523;SDS011;55524;51.380;13.372;2023-04-01T01:47:45;1.40;;;0.80;;
68523;SDS011;55524;51.380;13.372;2023-04-01T01:50:13;1.85;;;0.73;;
68523;SDS011;55524;51.380;13.372;2023-04-01T01:52:40;1.27;;;0.90;;
68523;SDS011;55524;51.380;13.372;2023-04-01T01:55:23;2.72;;;0.80;;
68523;SDS011;55524;51.380;13.372;2023-04-01T01:57:55;0.90;;;0.90;;
68523;SDS011;55524;51.380;13.372;2023-04-01T02:00:27;3.25;;;0.98;;
68523;SDS011;55524;51.380;13.372;2023-04-01T02:02:54;3.17;;;0.80;;
68523;SDS011;55524;51.380;13.372;2023-04-01T02:05:23;1.17;;;0.60;;
68523;SDS011;55524;51.380;13.372;2023-04-01T02:08:01;2.28;;;0.98;;
68523;SDS011;55524;51.380;13.372;2023-04-01T02:10:51;1.52;;;0.90;;
68523;SDS011;55524;51.380;13.372;2023-04-01T02:16:36;5.30;;;0.98;;
68523;SDS011;55524;51.380;13.372;2023-04-01T02:19:20;2.75;;;0.93;;
68523;SDS011;55524;51.380;13.372;2023-04-01T02:21:53;1.70;;;0.82;;
68523;SDS011;55524;51.380;13.372;2023-04-01T02:24:25;2.28;;;0.80;;
68523;SDS011;55524;51.380;13.372;2023-04-01T02:26:55;2.47;;;0.93;;
68523;SDS011;55524;51.380;13.372;2023-04-01T02:29:21;1.75;;;0.98;;
68523;SDS011;55524;51.380;13.372;2023-04-01T02:34:20;2.97;;;1.23;;
68523;SDS011;55524;51.380;13.372;2023-04-01T02:36:48;2.00;;;1.05;;
68523;SDS011;55524;51.380;13.372;2023-04-01T02:39:16;1.85;;;0.90;;
68523;SDS011;55524;51.380;13.372;2023-04-01T02:41:44;1.77;;;0.90;;
68523;SDS011;55524;51.380;13.372;2023-04-01T02:44:12;3.30;;;1.10;;
68523;SDS011;55524;51.380;13.372;2023-04-01T02:46:39;2.75;;;1.02;;
68523;SDS011;55524;51.380;13.372;2023-04-01T02:49:05;2.75;;;1.10;;
68523;SDS011;55524;51.380;13.372;2023-04-01T02:51:32;3.85;;;0.90;;
68523;SDS011;55524;51.380;13.372;2023-04-01T02:53:59;2.67;;;0.88;;
68523;SDS011;55524;51.380;13.372;2023-04-01T02:56:25;2.25;;;0.80;;
68523;SDS011;55524;51.380;13.372;2023-04-01T02:58:52;4.53;;;1.13;;
68523;SDS011;55524;51.380;13.372;2023-04-01T03:01:19;3.35;;;0.90;;
68523;SDS011;55524;51.380;13.372;2023-04-01T03:03:46;1.98;;;0.80;;
68523;SDS011;55524;51.380;13.372;2023-04-01T03:06:13;1.83;;;0.90;;
68523;SDS011;55524;51.380;13.372;2023-04-01T03:08:41;1.15;;;1.05;;
68523;SDS011;55524;51.380;13.372;2023-04-01T03:11:08;1.27;;;0.75;;
68523;SDS011;55524;51.380;13.372;2023-04-01T03:13:35;2.40;;;0.90;;
68523;SDS011;55524;51.380;13.372;2023-04-01T03:16:02;1.52;;;0.80;;
68523;SDS011;55524;51.380;13.372;2023-04-01T03:18:28;1.60;;;0.80;;
68523;SDS011;55524;51.380;13.372;2023-04-01T03:20:54;3.10;;;1.60;;
68523;SDS011;55524;51.380;13.372;2023-04-01T03:23:21;3.85;;;0.90;;
68523;SDS011;55524;51.380;13.372;2023-04-01T03:25:49;4.70;;;0.80;;
68523;SDS011;55524;51.380;13.372;2023-04-01T03:28:15;2.70;;;0.90;;
68523;SDS011;55524;51.380;13.372;2023-04-01T03:30:41;1.85;;;0.82;;
68523;SDS011;55524;51.380;13.372;2023-04-01T03:33:08;4.70;;;1.00;;
68523;SDS011;55524;51.380;13.372;2023-04-01T03:35:34;3.60;;;1.10;;
68523;SDS011;55524;51.380;13.372;2023-04-01T03:38:01;1.75;;;0.95;;
68523;SDS011;55524;51.380;13.372;2023-04-01T03:40:27;5.03;;;1.00;;
68523;SDS011;55524;51.380;13.372;2023-04-01T03:42:53;4.78;;;1.20;;
68523;SDS011;55524;51.380;13.372;2023-04-01T03:45:21;5.53;;;1.20;;
68523;SDS011;55524;51.380;13.372;2023-04-01T03:47:47;1.73;;;0.80;;
68523;SDS011;55524;51.380;13.372;2023-04-01T03:50:13;2.80;;;1.00;;
68523;SDS011;55524;51.380;13.372;2023-04-01T03:52:39;5.13;;;1.10;;
68523;SDS011;55524;51.380;13.372;2023-04-01T03:55:06;2.90;;;1.10;;
68523;SDS011;55524;51.380;13.372;2023-04-01T03:57:32;2.55;;;1.08;;
68523;SDS011;55524;51.380;13.372;2023-04-01T03:59:59;1.55;;;0.80;;
68523;SDS011;55524;51.380;13.372;2023-04-01T04:02:25;6.82;;;1.05;;
68523;SDS011;55524;51.380;13.372;2023-04-01T04:04:51;1.25;;;1.00;;
68523;SDS011;55524;51.380;13.372;2023-04-01T04:07:18;2.72;;;1.00;;
68523;SDS011;55524;51.380;13.372;2023-04-01T04:09:44;5.32;;;1.10;;
68523;SDS011;55524;51.380;13.372;2023-04-01T04:12:10;3.20;;;1.25;;
68523;SDS011;55524;51.380;13.372;2023-04-01T04:14:36;2.05;;;1.10;;
68523;SDS011;55524;51.380;13.372;2023-04-01T04:17:03;2.28;;;0.90;;
68523;SDS011;55524;51.380;13.372;2023-04-01T04:19:31;1.92;;;1.10;;
68523;SDS011;55524;51.380;13.372;2023-04-01T04:22:00;6.70;;;1.10;;
68523;SDS011;55524;51.380;13.372;2023-04-01T04:24:27;2.58;;;0.90;;
68523;SDS011;55524;51.380;13.372;2023-04-01T04:26:53;4.22;;;1.00;;
68523;SDS011;55524;51.380;13.372;2023-04-01T04:29:20;3.83;;;1.10;;
68523;SDS011;55524;51.380;13.372;2023-04-01T04:31:47;4.80;;;1.40;;
68523;SDS011;55524;51.380;13.372;2023-04-01T04:34:14;5.35;;;0.98;;
68523;SDS011;55524;51.380;13.372;2023-04-01T04:36:40;1.73;;;0.98;;
68523;SDS011;55524;51.380;13.372;2023-04-01T04:39:06;1.27;;;1.17;;
68523;SDS011;55524;51.380;13.372;2023-04-01T04:41:32;2.38;;;0.82;;
68523;SDS011;55524;51.380;13.372;2023-04-01T04:44:01;6.50;;;1.33;;
68523;SDS011;55524;51.380;13.372;2023-04-01T04:46:28;2.75;;;1.10;;
68523;SDS011;55524;51.380;13.372;2023-04-01T04:48:55;1.27;;;0.85;;
68523;SDS011;55524;51.380;13.372;2023-04-01T04:51:21;5.22;;;1.00;;
68523;SDS011;55524;51.380;13.372;2023-04-01T04:53:48;4.13;;;1.10;;
68523;SDS011;55524;51.380;13.372;2023-04-01T04:56:18;2.35;;;0.88;;
68523;SDS011;55524;51.380;13.372;2023-04-01T04:58:45;2.28;;;0.88;;
68523;SDS011;55524;51.380;13.372;2023-04-01T05:01:13;1.50;;;0.70;;
68523;SDS011;55524;51.380;13.372;2023-04-01T05:03:40;3.85;;;1.00;;
68523;SDS011;55524;51.380;13.372;2023-04-01T05:06:07;4.45;;;0.85;;
68523;SDS011;55524;51.380;13.372;2023-04-01T05:08:35;1.90;;;1.00;;
68523;SDS011;55524;51.380;13.372;2023-04-01T05:11:02;4.18;;;0.80;;
68523;SDS011;55524;51.380;13.372;2023-04-01T05:13:31;2.13;;;1.10;;
68523;SDS011;55524;51.380;13.372;2023-04-01T05:15:57;1.30;;;1.10;;
68523;SDS011;55524;51.380;13.372;2023-04-01T05:18:24;4.45;;;0.90;;
68523;SDS011;55524;51.380;13.372;2023-04-01T05:20:51;2.08;;;1.00;;
68523;SDS011;55524;51.380;13.372;2023-04-01T05:23:18;2.03;;;1.10;;
68523;SDS011;55524;51.380;13.372;2023-04-01T05:25:48;3.47;;;1.00;;
68523;SDS011;55524;51.380;13.372;2023-04-01T05:28:16;3.47;;;1.00;;
68523;SDS011;55524;51.380;13.372;2023-04-01T05:30:45;4.05;;;0.80;;
68523;SDS011;55524;51.380;13.372;2023-04-01T05:33:12;1.60;;;0.90;;
68523;SDS011;55524;51.380;13.372;2023-04-01T05:35:39;4.35;;;1.10;;
68523;SDS011;55524;51.380;13.372;2023-04-01T05:38:06;2.50;;;0.85;;
68523;SDS011;55524;51.380;13.372;2023-04-01T05:40:32;2.78;;;0.90;;
68523;SDS011;55524;51.380;13.372;2023-04-01T05:42:59;1.52;;;0.68;;
68523;SDS011;55524;51.380;13.372;2023-04-01T05:45:25;3.55;;;1.00;;
68523;SDS011;55524;51.380;13.372;2023-04-01T05:47:52;3.45;;;1.02;;
68523;SDS011;55524;51.380;13.372;2023-04-01T05:50:18;2.00;;;0.80;;
68523;SDS011;55524;51.380;13.372;2023-04-01T05:52:45;1.25;;;0.80;;
68523;SDS011;55524;51.380;13.372;2023-04-01T05:55:12;1.95;;;0.85;;
68523;SDS011;55524;51.380;13.372;2023-04-01T05:57:38;2.95;;;1.00;;
68523;SDS011;55524;51.380;13.372;2023-04-01T06:00:05;1.08;;;0.80;;
68523;SDS011;55524;51.380;13.372;2023-04-01T06:02:31;2.97;;;0.90;;
68523;SDS011;55524;51.380;13.372;2023-04-01T06:05:41;2.28;;;0.80;;
68523;SDS011;55524;51.380;13.372;2023-04-01T06:07:58;2.42;;;0.82;;
68523;SDS011;55524;51.380;13.372;2023-04-01T06:13:42;4.22;;;0.98;;
68523;SDS011;55524;51.380;13.372;2023-04-01T06:19:24;3.97;;;0.90;;
68523;SDS011;55524;51.380;13.372;2023-04-01T06:22:08;2.50;;;0.90;;
68523;SDS011;55524;51.380;13.372;2023-04-01T06:30:18;3.33;;;0.95;;
68523;SDS011;55524;51.380;13.372;2023-04-01T06:38:52;4.72;;;1.13;;
68523;SDS011;55524;51.380;13.372;2023-04-01T06:53:18;26.48;;;2.42;;
68523;SDS011;55524;51.380;13.372;2023-04-01T06:55:47;2.45;;;0.90;;
68523;SDS011;55524;51.380;13.372;2023-04-01T06:58:23;23.17;;;2.53;;
68523;SDS011;55524;51.380;13.372;2023-04-01T07:01:03;3.10;;;1.00;;
68523;SDS011;55524;51.380;13.372;2023-04-01T07:03:36;4.20;;;1.00;;
68523;SDS011;55524;51.380;13.372;2023-04-01T07:06:35;6.82;;;1.17;;
68523;SDS011;55524;51.380;13.372;2023-04-01T07:09:30;6.45;;;0.95;;
68523;SDS011;55524;51.380;13.372;2023-04-01T07:12:01;8.23;;;1.23;;
68523;SDS011;55524;51.380;13.372;2023-04-01T07:14:36;5.45;;;0.90;;
68523;SDS011;55524;51.380;13.372;2023-04-01T07:17:08;20.45;;;1.73;;
68523;SDS011;55524;51.380;13.372;2023-04-01T07:19:48;2.28;;;0.93;;
68523;SDS011;55524;51.380;13.372;2023-04-01T07:24:54;15.80;;;2.22;;
68523;SDS011;55524;51.380;13.372;2023-04-01T07:27:23;3.35;;;0.85;;
68523;SDS011;55524;51.380;13.372;2023-04-01T07:29:49;5.03;;;0.90;;
68523;SDS011;55524;51.380;13.372;2023-04-01T07:32:34;4.38;;;1.10;;
68523;SDS011;55524;51.380;13.372;2023-04-01T07:38:11;15.48;;;1.70;;
68523;SDS011;55524;51.380;13.372;2023-04-01T07:41:23;3.35;;;1.00;;
68523;SDS011;55524;51.380;13.372;2023-04-01T07:46:56;4.30;;;0.80;;
68523;SDS011;55524;51.380;13.372;2023-04-01T07:52:44;12.50;;;1.20;;
68523;SDS011;55524;51.380;13.372;2023-04-01T07:55:14;3.35;;;0.80;;
68523;SDS011;55524;51.380;13.372;2023-04-01T07:57:56;7.28;;;1.10;;
68523;SDS011;55524;51.380;13.372;2023-04-01T08:03:30;1.30;;;0.70;;
68523;SDS011;55524;51.380;13.372;2023-04-01T08:11:31;0.80;;;0.80;;
68523;SDS011;55524;51.380;13.372;2023-04-01T08:16:45;8.07;;;1.52;;
68523;SDS011;55524;51.380;13.372;2023-04-01T08:21:57;1.58;;;0.80;;
68523;SDS011;55524;51.380;13.372;2023-04-01T08:24:33;1.38;;;0.85;;
68523;SDS011;55524;51.380;13.372;2023-04-01T08:27:09;4.78;;;1.08;;
68523;SDS011;55524;51.380;13.372;2023-04-01T08:29:55;4.15;;;1.10;;
68523;SDS011;55524;51.380;13.372;2023-04-01T08:32:41;5.03;;;1.10;;
68523;SDS011;55524;51.380;13.372;2023-04-01T08:37:57;2.33;;;0.90;;
68523;SDS011;55524;51.380;13.372;2023-04-01T09:01:14;1.38;;;0.73;;
68523;SDS011;55524;51.380;13.372;2023-04-01T09:03:58;1.55;;;0.65;;
68523;SDS011;55524;51.380;13.372;2023-04-01T09:38:21;2.88;;;0.80;;
68523;SDS011;55524;51.380;13.372;2023-04-01T10:00:32;2.85;;;0.70;;
68523;SDS011;55524;51.380;13.372;2023-04-01T10:14:16;6.20;;;0.70;;
68523;SDS011;55524;51.380;13.372;2023-04-01T10:17:14;1.40;;;0.70;;
68523;SDS011;55524;51.380;13.372;2023-04-01T10:26:25;1.70;;;0.70;;
68523;SDS011;55524;51.380;13.372;2023-04-01T11:00:36;0.98;;;0.60;;
68523;SDS011;55524;51.380;13.372;2023-04-01T11:12:24;10.80;;;0.83;;
68523;SDS011;55524;51.380;13.372;2023-04-01T11:31:43;0.60;;;0.60;;
68523;SDS011;55524;51.380;13.372;2023-04-01T11:40:07;2.58;;;1.13;;
68523;SDS011;55524;51.380;13.372;2023-04-01T11:45:39;0.63;;;0.60;;
68523;SDS011;55524;51.380;13.372;2023-04-01T11:48:27;1.05;;;0.70;;
68523;SDS011;55524;51.380;13.372;2023-04-01T12:13:45;2.08;;;0.50;;
68523;SDS011;55524;51.380;13.372;2023-04-01T12:37:49;0.70;;;0.70;;
68523;SDS011;55524;51.380;13.372;2023-04-01T12:46:10;4.60;;;0.63;;
68523;SDS011;55524;51.380;13.372;2023-04-01T13:07:26;0.90;;;0.60;;
68523;SDS011;55524;51.380;13.372;2023-04-01T13:10:06;1.35;;;0.50;;
68523;SDS011;55524;51.380;13.372;2023-04-01T13:21:25;5.72;;;0.93;;
68523;SDS011;55524;51.380;13.372;2023-04-01T13:27:03;7.93;;;0.57;;
68523;SDS011;55524;51.380;13.372;2023-04-01T13:35:06;4.78;;;0.73;;
68523;SDS011;55524;51.380;13.372;2023-04-01T13:45:56;3.70;;;0.70;;
68523;SDS011;55524;51.380;13.372;2023-04-01T13:59:27;0.88;;;0.70;;
68523;SDS011;55524;51.380;13.372;2023-04-01T14:10:43;0.50;;;0.50;;
68523;SDS011;55524;51.380;13.372;2023-04-01T14:19:56;0.68;;;0.52;;
68523;SDS011;55524;51.380;13.372;2023-04-01T14:22:38;2.45;;;0.50;;
68523;SDS011;55524;51.380;13.372;2023-04-01T14:28:31;0.70;;;0.70;;
68523;SDS011;55524;51.380;13.372;2023-04-01T14:31:39;13.77;;;6.72;;
68523;SDS011;55524;51.380;13.372;2023-04-01T14:37:04;0.77;;;0.77;;
68523;SDS011;55524;51.380;13.372;2023-04-01T14:39:47;6.40;;;5.57;;
68523;SDS011;55524;51.380;13.372;2023-04-01T14:50:49;0.77;;;0.40;;
68523;SDS011;55524;51.380;13.372;2023-04-01T14:55:50;2.40;;;0.40;;
68523;SDS011;55524;51.380;13.372;2023-04-01T14:58:19;0.40;;;0.40;;
68523;SDS011;55524;51.380;13.372;2023-04-01T15:00:48;1.00;;;0.50;;
68523;SDS011;55524;51.380;13.372;2023-04-01T15:31:59;9.23;;;4.22;;
68523;SDS011;55524;51.380;13.372;2023-04-01T15:59:44;12.98;;;2.95;;
68523;SDS011;55524;51.380;13.372;2023-04-01T16:02:36;9.70;;;4.72;;
68523;SDS011;55524;51.380;13.372;2023-04-01T16:08:15;3.35;;;2.30;;
68523;SDS011;55524;51.380;13.372;2023-04-01T16:19:33;2.67;;;2.47;;
68523;SDS011;55524;51.380;13.372;2023-04-01T16:41:35;3.83;;;2.30;;
68523;SDS011;55524;51.380;13.372;2023-04-01T16:44:24;2.10;;;1.92;;
68523;SDS011;55524;51.380;13.372;2023-04-01T16:46:53;2.67;;;1.30;;
68523;SDS011;55524;51.380;13.372;2023-04-01T16:49:40;2.13;;;1.33;;
68523;SDS011;55524;51.380;13.372;2023-04-01T16:52:34;2.83;;;2.38;;
68523;SDS011;55524;51.380;13.372;2023-04-01T16:55:14;4.55;;;2.92;;
68523;SDS011;55524;51.380;13.372;2023-04-01T17:03:16;2.60;;;2.30;;
68523;SDS011;55524;51.380;13.372;2023-04-01T17:08:33;3.17;;;2.20;;
68523;SDS011;55524;51.380;13.372;2023-04-01T17:11:27;7.03;;;4.28;;
68523;SDS011;55524;51.380;13.372;2023-04-01T17:19:55;2.00;;;1.80;;
68523;SDS011;55524;51.380;13.372;2023-04-01T17:37:09;26.27;;;15.85;;
68523;SDS011;55524;51.380;13.372;2023-04-01T17:40:04;65.35;;;33.35;;
68523;SDS011;55524;51.380;13.372;2023-04-01T17:42:42;127.55;;;58.17;;
68523;SDS011;55524;51.380;13.372;2023-04-01T17:45:21;43.63;;;26.25;;
68523;SDS011;55524;51.380;13.372;2023-04-01T17:48:16;23.80;;;17.60;;
68523;SDS011;55524;51.380;13.372;2023-04-01T17:53:53;3.10;;;2.83;;
68523;SDS011;55524;51.380;13.372;2023-04-01T17:57:05;4.00;;;2.90;;
68523;SDS011;55524;51.380;13.372;2023-04-01T18:10:37;5.03;;;4.55;;
68523;SDS011;55524;51.380;13.372;2023-04-01T18:27:23;3.30;;;3.05;;
68523;SDS011;55524;51.380;13.372;2023-04-01T18:30:02;3.50;;;3.20;;
68523;SDS011;55524;51.380;13.372;2023-04-01T18:32:44;3.60;;;3.30;;
68523;SDS011;55524;51.380;13.372;2023-04-01T18:38:35;3.50;;;3.20;;
68523;SDS011;55524;51.380;13.372;2023-04-01T18:47:03;3.05;;;2.85;;
68523;SDS011;55524;51.380;13.372;2023-04-01T18:52:27;3.35;;;2.95;;
68523;SDS011;55524;51.380;13.372;2023-04-01T19:00:28;4.65;;;4.18;;
68523;SDS011;55524;51.380;13.372;2023-04-01T19:05:48;4.85;;;4.38;;
68523;SDS011;55524;51.380;13.372;2023-04-01T19:08:19;4.15;;;3.85;;
68523;SDS011;55524;51.380;13.372;2023-04-01T19:25:23;5.68;;;5.00;;
68523;SDS011;55524;51.380;13.372;2023-04-01T19:38:39;5.95;;;5.35;;
68523;SDS011;55524;51.380;13.372;2023-04-01T19:43:54;5.90;;;5.20;;
68523;SDS011;55524;51.380;13.372;2023-04-01T19:47:00;6.20;;;5.55;;
68523;SDS011;55524;51.380;13.372;2023-04-01T19:49:52;6.43;;;5.57;;
68523;SDS011;55524;51.380;13.372;2023-04-01T19:52:31;7.40;;;5.78;;
68523;SDS011;55524;51.380;13.372;2023-04-01T19:57:54;8.30;;;6.88;;
68523;SDS011;55524;51.380;13.372;2023-04-01T20:00:36;9.77;;;6.30;;
68523;SDS011;55524;51.380;13.372;2023-04-01T20:08:49;10.43;;;7.03;;
68523;SDS011;55524;51.380;13.372;2023-04-01T20:17:15;9.25;;;6.57;;
68523;SDS011;55524;51.380;13.372;2023-04-01T20:22:31;9.57;;;7.05;;
68523;SDS011;55524;51.380;13.372;2023-04-01T20:27:37;10.88;;;7.22;;
68523;SDS011;55524;51.380;13.372;2023-04-01T20:44:10;6.75;;;5.43;;
68523;SDS011;55524;51.380;13.372;2023-04-01T20:46:42;9.18;;;6.13;;
68523;SDS011;55524;51.380;13.372;2023-04-01T20:49:23;8.10;;;5.90;;
68523;SDS011;55524;51.380;13.372;2023-04-01T20:54:47;7.15;;;5.47;;
68523;SDS011;55524;51.380;13.372;2023-04-01T20:57:25;6.93;;;5.30;;
68523;SDS011;55524;51.380;13.372;2023-04-01T21:16:41;4.70;;;4.13;;
68523;SDS011;55524;51.380;13.372;2023-04-01T21:33:36;4.10;;;3.70;;
68523;SDS011;55524;51.380;13.372;2023-04-01T21:39:22;5.72;;;4.50;;
68523;SDS011;55524;51.380;13.372;2023-04-01T21:42:10;4.47;;;4.07;;
68523;SDS011;55524;51.380;13.372;2023-04-01T21:44:55;9.82;;;6.32;;
68523;SDS011;55524;51.380;13.372;2023-04-01T21:53:13;4.50;;;4.10;;
68523;SDS011;55524;51.380;13.372;2023-04-01T22:05:03;4.10;;;3.67;;
68523;SDS011;55524;51.380;13.372;2023-04-01T22:07:42;4.05;;;3.65;;
68523;SDS011;55524;51.380;13.372;2023-04-01T22:12:52;4.70;;;4.20;;
68523;SDS011;55524;51.380;13.372;2023-04-01T22:27:26;4.78;;;4.03;;
68523;SDS011;55524;51.380;13.372;2023-04-01T22:32:48;4.10;;;3.80;;
68523;SDS011;55524;51.380;13.372;2023-04-01T22:35:27;4.50;;;4.10;;
68523;SDS011;55524;51.380;13.372;2023-04-01T22:43:57;4.85;;;4.07;;
68523;SDS011;55524;51.380;13.372;2023-04-01T22:49:06;6.60;;;4.72;;
68523;SDS011;55524;51.380;13.372;2023-04-01T22:57:57;4.57;;;4.15;;
68523;SDS011;55524;51.380;13.372;2023-04-01T23:02:50;4.97;;;3.97;;
68523;SDS011;55524;51.380;13.372;2023-04-01T23:05:37;5.25;;;3.70;;
68523;SDS011;55524;51.380;13.372;2023-04-01T23:11:23;4.95;;;3.72;;
68523;SDS011;55524;51.380;13.372;2023-04-01T23:16:43;3.95;;;3.40;;
68523;SDS011;55524;51.380;13.372;2023-04-01T23:19:23;3.95;;;3.35;;
68523;SDS011;55524;51.380;13.372;2023-04-01T23:21:54;3.35;;;3.10;;
68523;SDS011;55524;51.380;13.372;2023-04-01T23:27:23;4.95;;;3.30;;
68523;SDS011;55524;51.380;13.372;2023-04-01T23:30:00;4.95;;;4.22;;
68523;SDS011;55524;51.380;13.372;2023-04-01T23:32:28;4.30;;;3.90;;
68523;SDS011;55524;51.380;13.372;2023-04-01T23:34:56;6.15;;;4.57;;
68523;SDS011;55524;51.380;13.372;2023-04-01T23:37:24;6.80;;;4.63;;
68523;SDS011;55524;51.380;13.372;2023-04-01T23:39:53;5.10;;;4.60;;
68523;SDS011;55524;51.380;13.372;2023-04-01T23:42:23;4.90;;;4.32;;
68523;SDS011;55524;51.380;13.372;2023-04-01T23:44:51;4.90;;;4.35;;
68523;SDS011;55524;51.380;13.372;2023-04-01T23:47:21;4.70;;;3.95;;
68523;SDS011;55524;51.380;13.372;2023-04-01T23:52:39;4.57;;;3.92;;
68523;SDS011;55524;51.380;13.372;2023-04-01T23:55:15;4.82;;;3.78;;
